Time;durP1;ratioP1;P1;durP2;ratioP2;P2;SDS_P1;SDS_P2;PMS_P1;PMS_P2;Temp;Humidity;BMP_temperature;BMP_pressure;BME280_temperature;BME280_humidity;BME280_pressure;Samples;Min_cycle;Max_cycle;Signal;HPM_P1;HPM_P2
2024/02/15 00:01:35;;;;;;;4.20;2.03;;;9.60;60.20;;;;;;6056998;23;20026;-81
2024/02/15 00:04:23;;;;;;;6.80;2.47;;;9.60;71.60;;;;;;6055857;23;20114;-83
2024/02/15 00:07:10;;;;;;;3.47;1.80;;;9.60;68.80;;;;;;6039286;23;20031;-82
2024/02/15 00:09:58;;;;;;;3.83;1.88;;;9.60;79.20;;;;;;6057197;23;20410;-83
2024/02/15 00:12:47;;;;;;;6.05;2.30;;;9.60;85.50;;;;;;6062807;23;20054;-83
2024/02/15 00:15:36;;;;;;;6.93;2.53;;;9.50;91.60;;;;;;6050890;23;20031;-77
2024/02/15 00:18:24;;;;;;;3.28;2.17;;;9.60;96.80;;;;;;6045445;23;20046;-83
2024/02/15 00:21:12;;;;;;;3.83;2.28;;;9.60;91.10;;;;;;6061634;23;20039;-83
2024/02/15 00:24:01;;;;;;;4.93;2.55;;;9.70;67.80;;;;;;6061765;23;20105;-82
2024/02/15 00:26:49;;;;;;;8.65;2.10;;;9.70;56.00;;;;;;6050092;23;20031;-82
2024/02/15 00:29:40;;;;;;;5.60;2.08;;;9.70;42.20;;;;;;6057811;23;20037;-81
2024/02/15 00:32:28;;;;;;;4.07;2.40;;;9.70;21.50;;;;;;6057198;23;20031;-82
2024/02/15 00:35:16;;;;;;;4.03;2.22;;;9.60;7.70;;;;;;6058156;23;20529;-83
2024/02/15 00:38:04;;;;;;;7.63;2.72;;;9.60;6.80;;;;;;6069827;23;20098;-83
2024/02/15 00:40:53;;;;;;;4.15;2.25;;;9.60;11.60;;;;;;6056905;23;20118;-79
2024/02/15 00:43:41;;;;;;;6.03;2.80;;;9.60;33.00;;;;;;6068240;23;20037;-81
2024/02/15 00:46:29;;;;;;;5.90;2.30;;;9.50;51.00;;;;;;6054286;23;20366;-81
2024/02/15 00:49:16;;;;;;;4.45;2.05;;;9.50;89.00;;;;;;6055943;23;20390;-82
2024/02/15 00:52:06;;;;;;;4.55;2.10;;;9.50;99.90;;;;;;6035249;23;20026;-82
2024/02/15 00:54:54;;;;;;;4.38;2.03;;;9.50;99.90;;;;;;6063368;23;20055;-76
2024/02/15 00:57:43;;;;;;;3.58;2.58;;;9.40;99.90;;;;;;6050476;23;20270;-82
2024/02/15 01:00:31;;;;;;;5.30;2.30;;;9.40;99.90;;;;;;6061734;23;20019;-78
2024/02/15 01:03:20;;;;;;;7.80;2.20;;;9.40;99.90;;;;;;6074985;23;20023;-76
2024/02/15 01:06:08;;;;;;;3.45;2.08;;;9.30;99.90;;;;;;6067471;23;20023;-81
2024/02/15 01:08:57;;;;;;;5.90;2.28;;;9.30;99.90;;;;;;6060762;23;20470;-81
2024/02/15 01:11:44;;;;;;;8.98;2.33;;;9.20;99.90;;;;;;6057135;23;20030;-81
2024/02/15 01:14:32;;;;;;;4.07;2.30;;;9.10;99.90;;;;;;6040022;23;20027;-81
2024/02/15 01:17:20;;;;;;;3.30;2.10;;;9.10;99.90;;;;;;6059567;23;20034;-83
2024/02/15 01:20:10;;;;;;;3.92;1.80;;;9.00;99.90;;;;;;6060107;23;20023;-78
2024/02/15 01:22:57;;;;;;;7.45;2.05;;;9.00;99.90;;;;;;6060199;23;20054;-80
2024/02/15 01:25:46;;;;;;;7.13;2.45;;;9.00;99.90;;;;;;6042889;23;20031;-83
2024/02/15 01:28:34;;;;;;;5.20;2.03;;;9.00;99.90;;;;;;6065475;23;20109;-82
2024/02/15 01:31:23;;;;;;;4.93;2.08;;;9.00;99.90;;;;;;6058633;23;20031;-78
2024/02/15 01:34:11;;;;;;;11.27;2.30;;;9.00;99.90;;;;;;6066016;23;20098;-80
2024/02/15 01:36:58;;;;;;;2.88;1.83;;;9.00;99.90;;;;;;6066717;23;20058;-79
2024/02/15 01:39:46;;;;;;;5.70;2.03;;;9.00;99.90;;;;;;6069091;23;20053;-80
2024/02/15 01:42:34;;;;;;;3.08;2.15;;;8.90;99.90;;;;;;6033657;23;20250;-82
2024/02/15 01:45:21;;;;;;;2.67;2.00;;;8.80;1.00;;;;;;6064545;23;20074;-80
2024/02/15 01:48:10;;;;;;;3.50;2.33;;;8.70;1.00;;;;;;6053332;23;20090;-81
2024/02/15 01:50:59;;;;;;;5.93;2.30;;;8.60;1.00;;;;;;6058374;23;20027;-81
2024/02/15 01:53:47;;;;;;;5.90;2.25;;;8.60;1.00;;;;;;6057024;23;20046;-80
2024/02/15 01:56:36;;;;;;;7.65;2.90;;;8.50;1.00;;;;;;6058764;23;20043;-81
2024/02/15 01:59:25;;;;;;;6.78;2.72;;;8.40;59.10;;;;;;6060132;23;20537;-82
2024/02/15 02:02:16;;;;;;;4.28;2.38;;;8.40;99.90;;;;;;6039759;23;20089;-81
2024/02/15 02:05:05;;;;;;;5.07;2.50;;;8.30;99.90;;;;;;6058963;23;20099;-82
2024/02/15 02:07:53;;;;;;;5.03;2.70;;;8.20;99.90;;;;;;6061226;23;20031;-82
2024/02/15 02:10:40;;;;;;;4.43;2.72;;;8.20;99.90;;;;;;6063551;23;20026;-81
2024/02/15 02:13:28;;;;;;;9.93;2.90;;;8.10;99.90;;;;;;6060959;23;20090;-82
2024/02/15 02:16:32;;;;;;;5.78;2.65;;;8.10;1.00;;;;;;6019292;23;20443;-78
2024/02/15 02:19:20;;;;;;;5.25;2.33;;;8.00;1.00;;;;;;6058731;23;20111;-81
2024/02/15 02:22:09;;;;;;;4.30;2.60;;;8.00;3.20;;;;;;6037409;23;20665;-80
2024/02/15 02:25:06;;;;;;;5.53;3.05;;;8.00;99.90;;;;;;6039788;23;20030;-83
2024/02/15 02:27:54;;;;;;;5.22;2.75;;;7.90;99.90;;;;;;6060596;23;20026;-78
2024/02/15 02:30:45;;;;;;;3.83;2.67;;;8.00;99.90;;;;;;6068580;23;20403;-81
2024/02/15 02:33:34;;;;;;;2.70;2.35;;;7.90;99.90;;;;;;6069230;23;20027;-82
2024/02/15 02:36:26;;;;;;;6.10;2.40;;;7.90;99.90;;;;;;6062971;23;20374;-82
2024/02/15 02:39:14;;;;;;;5.63;2.40;;;7.90;1.00;;;;;;6053314;23;20033;-80
2024/02/15 02:42:03;;;;;;;6.47;3.05;;;7.80;1.00;;;;;;6067622;23;20029;-81
2024/02/15 02:44:51;;;;;;;6.50;2.50;;;7.80;1.00;;;;;;6061771;23;20030;-81
2024/02/15 02:47:39;;;;;;;5.82;2.55;;;7.80;38.00;;;;;;6034877;23;20027;-81
2024/02/15 02:50:27;;;;;;;5.97;2.95;;;7.80;99.90;;;;;;6072108;23;20027;-81
2024/02/15 02:53:15;;;;;;;8.55;3.03;;;7.70;99.90;;;;;;6071101;23;20045;-79
2024/02/15 02:56:03;;;;;;;7.15;2.90;;;7.70;99.90;;;;;;6074038;23;20030;-80
2024/02/15 02:58:52;;;;;;;6.90;2.97;;;7.70;99.90;;;;;;6075112;23;20050;-81
2024/02/15 03:01:40;;;;;;;4.85;2.70;;;7.70;99.90;;;;;;6077624;23;20022;-78
2024/02/15 03:04:28;;;;;;;5.75;2.78;;;7.60;1.00;;;;;;6044423;23;20019;-80
2024/02/15 03:07:18;;;;;;;6.63;2.80;;;7.60;29.90;;;;;;6058896;23;20030;-81
2024/02/15 03:10:13;;;;;;;4.75;2.53;;;7.50;99.90;;;;;;6037994;23;20041;-80
2024/02/15 03:13:04;;;;;;;6.07;2.70;;;7.60;99.90;;;;;;6040297;23;20041;-80
2024/02/15 03:15:52;;;;;;;6.38;3.15;;;7.60;1.00;;;;;;6068318;23;20023;-81
2024/02/15 03:18:41;;;;;;;5.93;3.15;;;7.60;1.00;;;;;;6057946;23;20031;-81
2024/02/15 03:21:29;;;;;;;4.22;2.30;;;7.50;1.00;;;;;;6057573;23;20054;-79
2024/02/15 03:24:17;;;;;;;4.57;2.78;;;7.50;45.60;;;;;;6070176;23;20145;-82
2024/02/15 03:27:04;;;;;;;8.60;2.90;;;7.50;99.90;;;;;;6068809;23;20082;-81
2024/02/15 03:29:52;;;;;;;5.25;2.88;;;7.50;99.90;;;;;;6060034;23;20027;-82
2024/02/15 03:32:41;;;;;;;5.35;2.55;;;7.60;99.90;;;;;;6060758;23;20031;-84
2024/02/15 03:35:31;;;;;;;5.82;3.20;;;7.60;1.00;;;;;;6058044;23;20126;-84
2024/02/15 03:38:19;;;;;;;5.18;2.60;;;7.60;1.00;;;;;;6058075;23;20557;-80
2024/02/15 03:41:06;;;;;;;5.38;3.03;;;7.60;99.90;;;;;;6071753;23;20011;-80
2024/02/15 03:43:54;;;;;;;5.72;2.78;;;7.50;99.90;;;;;;6059992;23;20028;-79
2024/02/15 03:46:42;;;;;;;6.30;2.55;;;7.50;99.90;;;;;;6069683;23;20597;-78
2024/02/15 03:49:33;;;;;;;7.07;2.88;;;7.40;99.90;;;;;;6081980;23;20041;-78
2024/02/15 03:52:21;;;;;;;5.70;2.67;;;7.40;99.90;;;;;;6065291;23;20340;-81
2024/02/15 03:55:09;;;;;;;7.43;2.80;;;7.40;99.90;;;;;;6059768;23;20030;-82
2024/02/15 03:58:08;;;;;;;4.88;2.90;;;7.40;99.90;;;;;;6063993;23;20134;-84
2024/02/15 04:00:56;;;;;;;3.95;2.92;;;7.40;99.90;;;;;;6069196;23;20130;-82
2024/02/15 04:03:44;;;;;;;6.97;3.25;;;7.40;99.90;;;;;;6078896;23;20078;-78
2024/02/15 04:06:33;;;;;;;6.53;2.83;;;7.50;99.90;;;;;;6083719;23;20019;-78
2024/02/15 04:09:25;;;;;;;4.18;2.58;;;7.50;99.90;;;;;;6034052;23;20053;-82
2024/02/15 04:12:13;;;;;;;4.22;2.33;;;7.60;99.90;;;;;;6046686;23;20023;-80
2024/02/15 04:15:05;;;;;;;4.80;2.80;;;7.60;99.90;;;;;;6059651;23;20086;-82
2024/02/15 04:17:56;;;;;;;4.55;2.85;;;7.60;97.50;;;;;;6058729;23;20484;-81
2024/02/15 04:20:45;;;;;;;7.63;2.92;;;7.70;1.00;;;;;;6062250;23;20082;-79
2024/02/15 04:23:35;;;;;;;8.15;2.72;;;7.70;1.00;;;;;;6059260;23;20082;-82
2024/02/15 04:26:26;;;;;;;4.85;3.17;;;7.70;99.90;;;;;;6038274;23;20042;-81
2024/02/15 04:29:15;;;;;;;8.10;2.80;;;7.70;99.90;;;;;;6058798;23;20050;-81
2024/02/15 04:32:03;;;;;;;7.88;2.70;;;7.70;99.90;;;;;;6036969;23;20499;-81
2024/02/15 04:34:52;;;;;;;5.80;2.70;;;7.70;99.90;;;;;;6057961;23;20030;-80
2024/02/15 04:37:40;;;;;;;6.32;2.60;;;7.70;99.90;;;;;;6035374;23;20022;-78
2024/02/15 04:40:28;;;;;;;9.65;2.88;;;7.70;99.90;;;;;;6057633;23;20027;-80
2024/02/15 04:43:15;;;;;;;5.97;2.83;;;7.80;37.00;;;;;;6058245;23;20354;-81
2024/02/15 04:46:07;;;;;;;4.80;2.53;;;7.90;1.00;;;;;;6064796;23;20066;-76
2024/02/15 04:49:03;;;;;;;;;;;7.90;1.00;;;;;;6059889;23;20026;-83
2024/02/15 04:51:50;;;;;;;5.10;3.00;;;7.90;1.00;;;;;;6055714;23;19917;-83
2024/02/15 04:54:39;;;;;;;3.72;2.50;;;7.80;99.90;;;;;;6057889;23;20031;-80
2024/02/15 04:57:28;;;;;;;5.43;2.88;;;7.70;99.90;;;;;;6081250;23;20055;-75
2024/02/15 05:00:20;;;;;;;7.20;3.13;;;7.60;99.90;;;;;;6064912;23;20059;-81
2024/02/15 05:03:08;;;;;;;7.75;3.35;;;7.50;99.90;;;;;;6077741;23;20091;-79
2024/02/15 05:05:57;;;;;;;4.60;3.05;;;7.40;99.90;;;;;;6050623;23;20022;-80
2024/02/15 05:08:44;;;;;;;8.45;4.13;;;7.40;99.90;;;;;;6076261;23;20046;-78
2024/02/15 05:11:37;;;;;;;9.15;3.25;;;7.40;1.00;;;;;;6071928;23;20108;-82
2024/02/15 05:14:26;;;;;;;;;;;7.30;1.00;;;;;;6046104;23;20033;-80
2024/02/15 05:17:14;;;;;;;7.60;3.33;;;7.30;1.00;;;;;;6057601;23;19921;-80
2024/02/15 05:20:10;;;;;;;6.78;4.00;;;7.20;1.00;;;;;;6035788;23;20027;-80
2024/02/15 05:22:58;;;;;;;7.38;4.07;;;7.20;2.60;;;;;;6057320;23;20027;-82
2024/02/15 05:25:47;;;;;;;12.98;4.30;;;7.10;98.50;;;;;;6039309;23;20110;-81
2024/02/15 05:28:35;;;;;;;6.20;3.97;;;7.00;99.90;;;;;;6036206;23;20034;-79
2024/02/15 05:31:25;;;;;;;6.20;4.07;;;6.90;99.90;;;;;;6054528;23;20111;-80
2024/02/15 05:34:15;;;;;;;7.88;3.97;;;6.80;99.90;;;;;;6059549;23;20091;-81
2024/02/15 05:37:03;;;;;;;7.55;4.10;;;6.70;1.00;;;;;;6064147;23;20209;-79
2024/02/15 05:39:53;;;;;;;9.10;4.22;;;6.70;99.90;;;;;;6071199;23;20037;-78
2024/02/15 05:42:47;;;;;;;8.45;4.78;;;6.70;1.00;;;;;;6070248;23;20081;-79
2024/02/15 05:45:36;;;;;;;8.82;4.80;;;6.70;99.90;;;;;;6062602;23;20031;-79
2024/02/15 05:48:23;;;;;;;6.97;4.45;;;6.70;99.90;;;;;;6078597;23;20037;-79
2024/02/15 05:51:11;;;;;;;10.25;4.30;;;6.70;99.90;;;;;;6049260;23;20027;-81
2024/02/15 05:53:59;;;;;;;6.20;4.20;;;6.70;1.00;;;;;;6048848;23;20026;-82
2024/02/15 05:56:51;;;;;;;8.48;4.88;;;6.70;23.90;;;;;;6064270;23;20105;-81
2024/02/15 05:59:51;;;;;;;9.48;4.82;;;6.70;99.90;;;;;;6066035;23;20086;-82
2024/02/15 06:02:43;;;;;;;9.32;4.78;;;6.70;1.00;;;;;;6061317;23;20046;-81
2024/02/15 06:05:32;;;;;;;8.60;4.50;;;6.70;99.90;;;;;;6062418;23;20037;-82
2024/02/15 06:08:22;;;;;;;11.57;5.18;;;6.70;99.90;;;;;;6067854;23;20078;-79
2024/02/15 06:11:10;;;;;;;8.85;4.45;;;6.70;99.90;;;;;;6041811;23;20110;-78
2024/02/15 06:13:58;;;;;;;12.10;5.20;;;6.60;99.90;;;;;;6038227;23;20031;-81
2024/02/15 06:16:49;;;;;;;8.70;5.15;;;6.50;99.90;;;;;;6037529;23;20046;-80
2024/02/15 06:19:36;;;;;;;10.52;6.10;;;6.50;99.90;;;;;;6058024;23;20033;-79
2024/02/15 06:22:26;;;;;;;9.48;5.72;;;6.40;1.00;;;;;;6059026;23;20071;-83
2024/02/15 06:25:20;;;;;;;9.63;5.75;;;6.30;99.90;;;;;;6058891;23;20105;-77
2024/02/15 06:40:45;;;;;;;10.98;6.10;;;6.00;14.80;;;;;;6056788;23;20031;-81
2024/02/15 06:43:33;;;;;;;9.82;6.40;;;6.10;99.90;;;;;;6054703;23;20037;-82
2024/02/15 06:46:21;;;;;;;9.13;6.53;;;6.20;99.90;;;;;;6059681;23;20118;-81
2024/02/15 06:49:09;;;;;;;8.15;5.68;;;6.30;99.90;;;;;;6040577;23;20558;-80
2024/02/15 06:51:59;;;;;;;9.90;6.10;;;6.40;99.90;;;;;;6059892;23;20452;-81
2024/02/15 06:54:46;;;;;;;9.25;6.10;;;6.40;99.90;;;;;;6027071;23;20054;-81
2024/02/15 06:57:38;;;;;;;10.38;5.30;;;6.50;99.90;;;;;;6070674;23;20071;-81
2024/02/15 07:00:26;;;;;;;14.45;6.15;;;6.60;99.90;;;;;;6066165;23;20026;-82
2024/02/15 07:03:13;;;;;;;32.22;17.00;;;6.70;17.40;;;;;;6037933;23;20037;-82
2024/02/15 07:06:02;;;;;;;11.55;6.85;;;6.80;1.00;;;;;;6071885;23;20037;-82
2024/02/15 07:08:55;;;;;;;9.05;5.35;;;6.80;99.90;;;;;;6059453;23;20101;-82
2024/02/15 07:11:43;;;;;;;9.77;5.43;;;6.90;71.10;;;;;;6020534;23;20030;-81
2024/02/15 07:14:34;;;;;;;8.77;5.05;;;6.90;1.00;;;;;;6038639;23;20026;-80
2024/02/15 07:17:22;;;;;;;10.30;4.68;;;7.10;99.90;;;;;;6039292;23;20026;-82
2024/02/15 07:20:17;;;;;;;9.38;4.85;;;7.30;13.00;;;;;;6061036;23;20063;-81
2024/02/15 07:23:06;;;;;;;6.43;4.22;;;7.60;82.10;;;;;;6059759;23;20030;-79
2024/02/15 07:25:53;;;;;;;12.50;4.80;;;8.10;99.90;;;;;;6057828;23;20038;-80
2024/02/15 07:28:41;;;;;;;7.22;4.15;;;8.30;1.00;;;;;;6058691;23;20108;-80
2024/02/15 07:31:30;;;;;;;6.18;3.88;;;8.60;1.00;;;;;;6042254;23;20050;-80
2024/02/15 07:34:17;;;;;;;7.72;4.15;;;9.00;1.00;;;;;;6059709;23;20031;-79
2024/02/15 07:37:07;;;;;;;7.05;3.50;;;9.40;1.00;;;;;;6062219;23;20035;-78
2024/02/15 07:39:56;;;;;;;6.75;3.85;;;9.80;23.10;;;;;;6057176;23;20011;-81
2024/02/15 07:42:52;;;;;;;5.53;3.50;;;9.90;99.90;;;;;;6058798;23;20034;-79
2024/02/15 07:45:40;;;;;;;6.05;3.80;;;9.90;1.00;;;;;;6035096;23;20037;-80
2024/02/15 07:48:28;;;;;;;9.98;4.40;;;9.90;99.90;;;;;;6066728;23;20026;-81
2024/02/15 07:51:20;;;;;;;7.13;3.92;;;9.90;99.90;;;;;;6066812;23;20035;-81
2024/02/15 07:54:08;;;;;;;8.27;4.05;;;9.80;99.90;;;;;;6061503;23;20374;-79
2024/02/15 07:56:55;;;;;;;5.30;3.72;;;9.90;17.20;;;;;;6055529;23;20026;-79
2024/02/15 07:59:44;;;;;;;9.30;3.80;;;10.20;1.00;;;;;;6056870;23;20031;-78
2024/02/15 08:02:33;;;;;;;6.57;3.78;;;10.40;1.00;;;;;;6057445;23;20110;-77
2024/02/15 08:05:20;;;;;;;5.82;3.75;;;10.70;99.90;;;;;;6036164;23;20098;-77
2024/02/15 08:08:08;;;;;;;6.15;3.38;;;10.60;99.90;;;;;;6056340;23;20042;-78
2024/02/15 08:10:55;;;;;;;9.55;3.45;;;10.60;99.90;;;;;;6058728;23;20501;-80
2024/02/15 08:13:54;;;;;;;6.72;3.20;;;10.60;99.90;;;;;;6054924;23;20070;-80
2024/02/15 08:16:42;;;;;;;4.72;3.20;;;10.70;99.90;;;;;;6040111;23;20082;-79
2024/02/15 08:19:29;;;;;;;4.53;3.22;;;10.80;99.90;;;;;;6059264;23;20054;-78
2024/02/15 08:22:23;;;;;;;6.28;3.28;;;11.00;99.90;;;;;;6060217;23;20101;-77
2024/02/15 08:25:15;;;;;;;8.43;3.88;;;11.00;99.90;;;;;;6039519;23;20354;-80
2024/02/15 08:28:05;;;;;;;6.63;3.92;;;11.00;99.90;;;;;;6037647;23;20125;-78
2024/02/15 08:30:54;;;;;;;13.80;7.40;;;11.00;99.90;;;;;;6057251;23;20174;-79
2024/02/15 08:33:45;;;;;;;8.10;4.60;;;11.00;99.90;;;;;;6049807;23;20042;-78
2024/02/15 08:36:33;;;;;;;9.77;4.28;;;11.10;99.90;;;;;;6059742;23;20259;-77
2024/02/15 08:39:21;;;;;;;6.45;2.78;;;11.30;99.90;;;;;;6075081;23;20410;-80
2024/02/15 08:42:11;;;;;;;6.85;2.63;;;11.30;47.80;;;;;;6068944;23;20019;-78
2024/02/15 08:44:59;;;;;;;5.60;2.70;;;11.20;28.80;;;;;;6059891;23;20045;-78
2024/02/15 08:47:49;;;;;;;4.32;2.80;;;11.20;15.60;;;;;;6040921;23;20045;-76
2024/02/15 08:50:38;;;;;;;5.10;2.80;;;11.20;8.40;;;;;;6063662;23;20034;-79
2024/02/15 08:53:26;;;;;;;7.20;2.95;;;11.30;1.00;;;;;;6078639;23;20031;-78
2024/02/15 08:56:16;;;;;;;4.38;2.42;;;11.40;5.70;;;;;;6078003;23;20015;-77
2024/02/15 08:59:04;;;;;;;5.10;2.40;;;11.60;1.00;;;;;;6076418;23;20034;-80
2024/02/15 09:01:51;;;;;;;6.68;2.50;;;11.40;9.10;;;;;;6067147;23;20374;-79
2024/02/15 09:04:40;;;;;;;5.00;2.63;;;11.40;3.10;;;;;;6057806;23;20030;-79
2024/02/15 09:07:32;;;;;;;8.30;1.98;;;11.50;1.00;;;;;;6058182;23;20042;-80
2024/02/15 09:10:23;;;;;;;4.18;2.08;;;11.80;1.00;;;;;;6057727;23;20031;-79
2024/02/15 09:13:10;;;;;;;7.20;2.00;;;12.20;1.00;;;;;;6065537;23;20035;-77
2024/02/15 09:15:57;;;;;;;3.83;2.33;;;12.20;1.00;;;;;;6058777;23;20451;-80
2024/02/15 09:18:45;;;;;;;4.32;1.90;;;12.20;1.00;;;;;;6058372;23;20414;-78
2024/02/15 09:21:33;;;;;;;7.22;2.00;;;12.60;1.00;;;;;;6069056;23;20033;-78
2024/02/15 09:24:25;;;;;;;7.47;2.30;;;13.30;1.00;;;;;;6070237;23;20033;-78
2024/02/15 09:27:12;;;;;;;3.45;2.03;;;14.00;1.00;;;;;;6063362;23;20087;-79
2024/02/15 09:30:00;;;;;;;5.55;1.52;;;14.50;99.90;;;;;;6061188;23;20766;-80
2024/02/15 09:32:47;;;;;;;3.17;1.40;;;14.50;99.90;;;;;;6059807;23;20041;-79
2024/02/15 09:35:35;;;;;;;2.88;1.42;;;14.60;99.90;;;;;;6064347;23;20031;-79
2024/02/15 09:38:25;;;;;;;4.68;1.40;;;14.40;99.90;;;;;;6039732;23;20027;-78
2024/02/15 09:41:12;;;;;;;3.65;1.33;;;14.40;99.90;;;;;;6058262;23;20027;-79
2024/02/15 09:44:01;;;;;;;2.30;1.30;;;14.40;99.90;;;;;;6058012;23;20034;-80
2024/02/15 09:46:57;;;;;;;4.07;1.15;;;14.60;99.90;;;;;;6058399;23;20030;-78
2024/02/15 09:49:45;;;;;;;1.92;1.08;;;14.90;99.90;;;;;;6055487;23;20109;-77
2024/02/15 09:52:35;;;;;;;3.35;1.35;;;15.30;99.90;;;;;;6056723;23;20030;-79
2024/02/15 09:55:26;;;;;;;3.30;1.20;;;16.30;99.90;;;;;;6058328;23;20877;-81
2024/02/15 09:58:15;;;;;;;2.88;1.20;;;17.30;99.90;;;;;;6059149;23;20027;-79
2024/02/15 10:01:09;;;;;;;3.17;1.10;;;18.20;99.90;;;;;;6058923;23;20347;-78
2024/02/15 10:03:59;;;;;;;3.83;0.98;;;18.70;99.90;;;;;;6056908;23;20031;-79
2024/02/15 10:06:47;;;;;;;4.70;1.15;;;19.70;99.90;;;;;;6060886;23;20031;-79
2024/02/15 10:09:42;;;;;;;4.43;1.05;;;20.20;99.90;;;;;;6067464;23;20538;-79
2024/02/15 10:12:40;;;;;;;2.45;0.90;;;20.60;99.90;;;;;;6064059;23;20034;-78
2024/02/15 10:15:38;;;;;;;3.22;1.30;;;20.70;99.90;;;;;;6056619;23;20027;-79
2024/02/15 10:18:26;;;;;;;3.25;1.00;;;19.80;99.90;;;;;;6021439;23;20030;-78
2024/02/15 10:21:29;;;;;;;2.40;1.30;;;19.00;99.90;;;;;;6046745;23;20023;-79
2024/02/15 10:24:19;;;;;;;3.55;1.25;;;18.20;99.90;;;;;;6072316;23;20038;-79
2024/02/15 10:27:07;;;;;;;1.95;0.75;;;18.50;99.90;;;;;;6070609;23;20058;-79
2024/02/15 10:30:15;;;;;;;3.10;1.08;;;19.20;99.90;;;;;;6040454;23;20030;-78
2024/02/15 10:33:05;;;;;;;1.70;0.90;;;19.20;99.90;;;;;;6040563;23;20106;-76
2024/02/15 10:36:09;;;;;;;3.05;0.98;;;19.20;99.90;;;;;;6057933;23;20034;-77
2024/02/15 10:39:16;;;;;;;4.35;0.90;;;19.30;99.90;;;;;;6059776;23;20022;-78
2024/02/15 10:42:07;;;;;;;3.88;1.00;;;19.40;99.90;;;;;;6058923;23;20105;-78
2024/02/15 10:44:55;;;;;;;1.83;1.10;;;19.30;99.90;;;;;;6069960;23;20094;-80
2024/02/15 10:47:46;;;;;;;2.30;1.10;;;19.50;99.90;;;;;;6059914;23;20059;-77
2024/02/15 10:50:33;;;;;;;4.28;0.80;;;19.60;99.90;;;;;;6058058;23;20030;-78
2024/02/15 10:53:25;;;;;;;3.63;1.15;;;19.40;99.90;;;;;;6068062;23;20026;-76
2024/02/15 10:56:22;;;;;;;3.88;1.00;;;20.40;99.90;;;;;;6078842;23;20047;-77
2024/02/15 10:59:13;;;;;;;2.47;0.90;;;21.30;99.90;;;;;;6041404;23;20030;-80
2024/02/15 11:02:24;;;;;;;4.70;0.90;;;21.90;99.90;;;;;;6039443;23;20034;-78
2024/02/15 11:05:14;;;;;;;2.80;0.80;;;20.70;99.90;;;;;;6058748;23;20030;-78
2024/02/15 11:08:08;;;;;;;1.83;0.85;;;20.30;99.40;;;;;;6058938;23;20102;-78
2024/02/15 11:10:58;;;;;;;2.40;0.75;;;20.40;1.00;;;;;;6060435;23;20030;-77
2024/02/15 11:13:49;;;;;;;3.42;0.80;;;20.30;1.00;;;;;;6039721;23;20027;-79
2024/02/15 11:16:43;;;;;;;3.13;1.10;;;20.00;99.90;;;;;;6043101;23;20022;-77
2024/02/15 11:19:41;;;;;;;3.17;1.00;;;20.10;57.40;;;;;;6074798;23;20082;-78
2024/02/15 11:22:30;;;;;;;4.28;1.15;;;21.40;14.90;;;;;;6042613;23;20106;-78
2024/02/15 11:25:34;;;;;;;1.63;0.70;;;21.80;1.00;;;;;;6059236;23;20023;-77
2024/02/15 11:28:21;;;;;;;2.88;0.90;;;21.00;1.00;;;;;;6057978;23;20378;-80
2024/02/15 11:31:32;;;;;;;2.72;0.95;;;21.10;1.00;;;;;;6056234;23;20348;-79
2024/02/15 11:35:13;;;;;;;1.83;0.85;;;21.00;1.00;;;;;;6037238;23;20106;-79
2024/02/15 11:38:04;;;;;;;2.20;0.75;;;20.70;1.00;;;;;;6032401;23;20165;-79
2024/02/15 11:40:53;;;;;;;2.08;0.90;;;20.60;1.00;;;;;;6059242;23;20037;-79
2024/02/15 11:43:57;;;;;;;5.25;1.05;;;20.30;21.90;;;;;;6058020;23;20033;-81
2024/02/15 11:46:55;;;;;;;1.30;0.80;;;20.20;24.20;;;;;;6057912;23;20030;-80
2024/02/15 11:49:43;;;;;;;1.80;0.85;;;20.10;24.40;;;;;;6056782;23;20162;-79
2024/02/15 11:52:31;;;;;;;2.97;0.82;;;20.30;28.50;;;;;;6055283;23;20078;-80
2024/02/15 11:55:20;;;;;;;3.67;0.90;;;19.70;43.20;;;;;;6053828;23;20241;-80
2024/02/15 12:19:40;;;;;;;4.97;0.90;;;19.30;59.40;;;;;;6057190;23;20181;-81
2024/02/15 12:22:33;;;;;;;3.00;1.65;;;19.20;59.60;;;;;;6066987;23;20050;-80
2024/02/15 12:25:22;;;;;;;1.60;0.90;;;19.70;59.70;;;;;;6059567;23;20037;-79
2024/02/15 12:28:09;;;;;;;2.03;1.10;;;19.80;59.10;;;;;;6061165;23;20026;-80
2024/02/15 12:30:58;;;;;;;2.00;0.88;;;20.10;59.50;;;;;;6072568;23;20065;-77
2024/02/15 12:33:49;;;;;;;1.95;0.90;;;20.10;60.60;;;;;;6069753;23;20026;-79
2024/02/15 12:36:39;;;;;;;2.75;0.82;;;19.80;60.80;;;;;;6065885;23;20125;-81
2024/02/15 12:39:29;;;;;;;2.05;1.00;;;19.40;60.80;;;;;;6047453;23;20033;-82
2024/02/15 12:42:17;;;;;;;2.92;0.88;;;19.50;60.40;;;;;;6039552;23;20694;-80
2024/02/15 12:45:07;;;;;;;2.97;0.80;;;19.80;61.20;;;;;;6045349;23;20603;-84
2024/02/15 12:47:56;;;;;;;2.35;0.85;;;20.40;62.10;;;;;;6059057;23;20041;-80
2024/02/15 12:50:43;;;;;;;3.20;1.10;;;20.10;59.20;;;;;;6055067;23;20062;-81
2024/02/15 12:53:31;;;;;;;3.72;1.20;;;19.90;60.00;;;;;;6056493;23;20042;-81
2024/02/15 12:56:24;;;;;;;1.95;0.80;;;19.90;60.00;;;;;;6035150;23;20217;-80
2024/02/15 12:59:12;;;;;;;2.05;1.02;;;19.50;59.80;;;;;;6056124;23;20026;-81
2024/02/15 13:01:59;;;;;;;2.00;1.10;;;19.20;61.20;;;;;;6034388;23;20054;-81
2024/02/15 13:04:46;;;;;;;2.50;0.77;;;18.90;62.30;;;;;;6058895;23;20022;-81
2024/02/15 13:07:37;;;;;;;2.45;1.13;;;18.90;63.40;;;;;;6056572;23;20035;-83
2024/02/15 13:10:25;;;;;;;5.03;1.27;;;18.70;63.40;;;;;;6057370;23;20321;-83
2024/02/15 13:13:17;;;;;;;1.63;0.80;;;18.30;65.10;;;;;;6055398;23;20110;-82
2024/02/15 13:16:07;;;;;;;2.95;0.95;;;18.10;67.30;;;;;;6057151;23;20037;-80
2024/02/15 13:18:54;;;;;;;2.13;0.98;;;18.00;67.00;;;;;;6062558;23;20045;-79
2024/02/15 13:21:52;;;;;;;3.80;1.27;;;17.80;67.60;;;;;;6072494;23;20245;-81
2024/02/15 13:24:40;;;;;;;3.15;1.00;;;18.10;67.00;;;;;;6062818;23;20023;-82
2024/02/15 13:27:28;;;;;;;1.88;0.90;;;18.40;65.20;;;;;;6062829;23;20106;-79
2024/02/15 13:30:21;;;;;;;2.95;0.95;;;18.30;65.40;;;;;;6080274;23;20109;-80
2024/02/15 13:33:08;;;;;;;3.10;1.17;;;18.10;66.50;;;;;;6073864;23;20038;-79
2024/02/15 13:36:00;;;;;;;1.70;0.90;;;18.30;65.50;;;;;;6061915;23;20027;-83
2024/02/15 13:38:49;;;;;;;2.00;1.10;;;18.30;65.70;;;;;;6059757;23;20529;-80
2024/02/15 13:41:37;;;;;;;1.50;1.00;;;18.40;65.80;;;;;;6039740;23;20308;-82
2024/02/15 13:44:27;;;;;;;1.75;1.00;;;17.90;66.50;;;;;;6061210;23;20565;-80
2024/02/15 13:47:17;;;;;;;3.17;1.10;;;17.70;66.60;;;;;;6059657;23;20105;-80
2024/02/15 13:50:05;;;;;;;1.70;0.90;;;17.60;68.30;;;;;;6059926;23;20030;-84
2024/02/15 13:52:52;;;;;;;2.80;1.15;;;17.60;69.00;;;;;;6038805;23;20030;-80
2024/02/15 13:55:42;;;;;;;3.10;1.30;;;17.60;69.10;;;;;;6070093;23;20106;-83
2024/02/15 13:58:31;;;;;;;2.75;1.20;;;17.50;69.80;;;;;;6069638;23;20027;-84
2024/02/15 14:01:19;;;;;;;6.03;2.00;;;17.40;69.80;;;;;;6071633;23;20051;-79
2024/02/15 14:04:21;;;;;;;2.25;1.10;;;17.20;70.40;;;;;;6050395;23;20059;-80
2024/02/15 14:07:21;;;;;;;2.55;1.08;;;17.10;71.40;;;;;;6071906;23;20022;-79
2024/02/15 14:10:10;;;;;;;2.55;1.10;;;17.10;70.70;;;;;;6077769;23;20300;-79
2024/02/15 14:13:05;;;;;;;3.75;1.40;;;17.00;71.20;;;;;;6067672;23;20033;-81
2024/02/15 14:15:53;;;;;;;4.70;1.58;;;17.20;72.50;;;;;;6053117;23;20450;-83
2024/02/15 14:18:44;;;;;;;2.70;1.10;;;17.50;72.60;;;;;;6063373;23;20343;-77
2024/02/15 14:21:38;;;;;;;2.65;1.02;;;17.70;71.00;;;;;;6068163;23;20428;-83
2024/02/15 14:24:27;;;;;;;1.70;1.00;;;17.90;70.90;;;;;;6058346;23;20027;-80
2024/02/15 14:27:14;;;;;;;2.42;1.27;;;18.00;71.70;;;;;;6077938;23;20410;-79
2024/02/15 14:33:15;;;;;;;2.83;1.20;;;18.50;69.50;;;;;;6084179;23;20023;-79
2024/02/15 14:36:09;;;;;;;2.85;1.30;;;18.70;70.20;;;;;;6067384;23;20118;-81
2024/02/15 14:38:58;;;;;;;6.43;1.27;;;19.00;69.00;;;;;;6057755;23;20098;-82
2024/02/15 14:41:45;;;;;;;3.28;1.40;;;19.20;68.70;;;;;;6066817;23;20453;-80
2024/02/15 14:44:36;;;;;;;3.45;1.30;;;19.50;66.80;;;;;;6036451;23;20046;-82
2024/02/15 14:47:28;;;;;;;2.53;1.10;;;19.20;66.70;;;;;;6056716;23;20033;-83
2024/02/15 14:50:16;;;;;;;4.65;1.20;;;18.80;67.80;;;;;;6056802;23;20098;-81
2024/02/15 14:53:03;;;;;;;2.88;0.95;;;18.50;69.80;;;;;;6056429;23;20043;-82
2024/02/15 14:55:52;;;;;;;4.68;1.13;;;18.40;71.50;;;;;;6055714;23;20512;-79
2024/02/15 14:58:43;;;;;;;2.70;1.33;;;18.60;69.80;;;;;;6056481;23;20026;-81
2024/02/15 15:01:31;;;;;;;1.90;0.90;;;18.40;68.70;;;;;;6059525;23;20058;-80
2024/02/15 15:04:19;;;;;;;2.30;1.35;;;17.80;71.20;;;;;;6058136;23;20038;-82
2024/02/15 15:13:22;;;;;;;4.65;1.55;;;17.80;72.40;;;;;;6058459;23;20042;-82
2024/02/15 15:16:17;;;;;;;4.70;1.40;;;17.50;74.00;;;;;;6057056;23;20469;-81
2024/02/15 15:19:19;;;;;;;3.08;1.27;;;17.20;75.80;;;;;;6057015;23;20114;-82
2024/02/15 15:22:08;;;;;;;6.15;1.33;;;17.00;75.10;;;;;;6066076;23;20027;-81
2024/02/15 15:24:55;;;;;;;3.65;1.70;;;17.00;75.80;;;;;;6020599;23;20045;-83
2024/02/15 15:27:42;;;;;;;4.10;1.60;;;16.70;76.70;;;;;;6070642;23;20098;-82
2024/02/15 15:30:31;;;;;;;9.40;1.60;;;16.50;78.00;;;;;;6051523;23;20058;-81
2024/02/15 15:33:21;;;;;;;2.83;1.23;;;16.40;78.90;;;;;;6069699;23;20127;-82
2024/02/15 15:36:10;;;;;;;5.22;1.30;;;16.30;79.40;;;;;;6059917;23;20035;-79
2024/02/15 15:39:08;;;;;;;6.07;1.30;;;16.00;80.70;;;;;;6068101;23;20034;-80